Time;durP1;ratioP1;P1;durP2;ratioP2;P2;SDS_P1;SDS_P2;PMS_P1;PMS_P2;Temp;Humidity;BMP_temperature;BMP_pressure;BME280_temperature;BME280_humidity;BME280_pressure;Samples;Min_cycle;Max_cycle;Signal;HPM_P1;HPM_P2
2022/06/30 00:01:34;;;;;;;5.53;3.30;;;;;;;20.86;58.27;100890.00;5033211;28;20146;-77
2022/06/30 00:04:00;;;;;;;3.78;2.90;;;;;;;20.83;58.31;100890.28;5026783;28;20417;-77
2022/06/30 00:06:27;;;;;;;6.43;3.00;;;;;;;20.81;58.35;100892.22;5025209;28;20667;-77
2022/06/30 00:08:53;;;;;;;19.70;3.85;;;;;;;20.82;58.26;100891.25;5024548;28;20096;-77
2022/06/30 00:11:20;;;;;;;5.35;3.63;;;;;;;20.85;58.10;100896.31;5026464;28;20076;-77
2022/06/30 00:13:48;;;;;;;4.35;3.13;;;;;;;20.87;58.08;100891.69;5024405;28;20075;-77
2022/06/30 00:16:15;;;;;;;4.35;3.17;;;;;;;20.72;58.72;100890.44;5024249;28;20107;-77
2022/06/30 00:18:41;;;;;;;4.18;3.65;;;;;;;20.68;58.89;100894.34;5026314;28;20045;-76
2022/06/30 00:21:09;;;;;;;5.60;3.63;;;;;;;20.78;58.43;100897.84;5025441;28;20041;-77
2022/06/30 00:23:35;;;;;;;4.80;3.58;;;;;;;20.77;58.48;100886.34;5026319;28;20080;-77
2022/06/30 00:26:02;;;;;;;4.07;2.95;;;;;;;20.82;58.61;100896.59;5027109;28;20045;-76
2022/06/30 00:28:28;;;;;;;4.82;3.47;;;;;;;20.84;58.35;100902.63;5025407;28;20095;-76
2022/06/30 00:30:56;;;;;;;7.22;3.05;;;;;;;20.82;58.59;100899.25;5037287;28;20118;-77
2022/06/30 00:33:23;;;;;;;4.43;3.40;;;;;;;20.84;58.69;100892.78;5037203;28;20049;-76
2022/06/30 00:35:50;;;;;;;3.88;3.30;;;;;;;20.83;58.08;100901.78;5023996;28;20053;-77
2022/06/30 00:38:17;;;;;;;4.22;3.42;;;;;;;20.78;58.76;100904.03;5025618;28;20244;-77
2022/06/30 00:40:45;;;;;;;4.55;3.72;;;;;;;20.80;58.90;100895.91;5025251;28;20076;-77
2022/06/30 00:43:11;;;;;;;5.63;3.47;;;;;;;20.72;59.05;100890.44;5022911;28;20191;-76
2022/06/30 00:45:40;;;;;;;3.95;3.17;;;;;;;20.76;58.75;100891.84;5025388;28;20501;-77
2022/06/30 00:48:08;;;;;;;5.50;3.35;;;;;;;20.48;59.42;100890.81;5027035;28;20050;-65
2022/06/30 00:50:35;;;;;;;6.88;3.85;;;;;;;20.44;59.43;100894.75;5023422;28;20111;-65
2022/06/30 00:53:04;;;;;;;5.82;4.03;;;;;;;20.34;59.59;100886.75;5023745;28;20046;-65
2022/06/30 00:55:31;;;;;;;8.80;3.50;;;;;;;20.39;59.42;100884.53;5015821;28;20156;-65
2022/06/30 00:58:01;;;;;;;6.47;3.78;;;;;;;20.36;58.93;100882.13;5023983;28;20115;-65
2022/06/30 01:00:29;;;;;;;5.47;3.70;;;;;;;20.36;58.68;100879.47;5022519;28;20135;-65
2022/06/30 01:02:56;;;;;;;10.10;4.20;;;;;;;20.28;58.75;100889.13;5039998;28;20045;-65
2022/06/30 01:05:26;;;;;;;6.82;3.90;;;;;;;20.08;59.21;100882.88;5037552;28;20068;-65
2022/06/30 01:07:53;;;;;;;6.85;3.95;;;;;;;20.08;59.11;100879.38;5024769;28;20091;-65
2022/06/30 01:13:04;;;;;;;5.47;3.75;;;;;;;20.07;59.12;100875.03;5023063;28;20052;-64
2022/06/30 01:15:30;;;;;;;5.63;3.70;;;;;;;20.15;59.17;100875.19;5025853;28;20494;-65
2022/06/30 01:17:57;;;;;;;3.95;3.45;;;;;;;20.08;59.14;100877.56;5025180;28;20103;-65
2022/06/30 01:20:29;;;;;;;4.97;3.67;;;;;;;19.90;60.16;100873.88;5024037;28;20661;-64
2022/06/30 01:22:57;;;;;;;;;;;;;;;19.71;61.00;100887.09;5004180;28;20073;-64
2022/06/30 01:25:25;;;;;;;4.97;3.60;;;;;;;19.88;60.04;100889.97;5022598;28;19961;-64
2022/06/30 01:27:51;;;;;;;5.13;3.95;;;;;;;19.87;59.83;100885.66;5024315;28;20045;-64
2022/06/30 01:30:18;;;;;;;5.47;3.90;;;;;;;19.95;59.77;100884.13;5031260;28;20488;-64
2022/06/30 01:32:44;;;;;;;6.60;3.80;;;;;;;19.79;61.24;100881.97;5026222;28;20494;-64
2022/06/30 01:35:11;;;;;;;6.70;3.75;;;;;;;19.97;60.05;100880.34;5025475;28;20414;-65
2022/06/30 01:37:49;;;;;;;4.60;3.28;;;;;;;20.06;59.90;100874.22;5023959;28;20548;-65
2022/06/30 01:40:17;;;;;;;8.88;4.05;;;;;;;20.01;59.72;100878.25;5025043;28;20077;-65
2022/06/30 01:42:44;;;;;;;6.78;3.72;;;;;;;20.09;59.40;100883.72;5025897;28;20687;-65
2022/06/30 01:45:11;;;;;;;7.35;3.53;;;;;;;20.11;59.31;100884.44;5023160;28;20103;-65
2022/06/30 01:47:37;;;;;;;6.95;3.40;;;;;;;20.15;58.73;100878.69;5023445;28;20619;-65
2022/06/30 01:50:06;;;;;;;5.50;3.30;;;;;;;20.21;58.81;100882.66;5023623;28;20107;-65
2022/06/30 01:52:32;;;;;;;5.55;3.35;;;;;;;20.17;59.28;100875.91;5021566;28;20698;-65
2022/06/30 01:54:58;;;;;;;6.82;3.30;;;;;;;20.29;58.14;100883.66;5024981;28;20038;-65
2022/06/30 01:57:26;;;;;;;7.63;3.50;;;;;;;20.31;58.09;100886.19;5024615;28;20046;-65
2022/06/30 01:59:52;;;;;;;6.55;3.78;;;;;;;20.45;57.54;100882.28;5025833;28;20083;-65
2022/06/30 02:02:19;;;;;;;7.88;3.45;;;;;;;20.42;57.45;100878.06;5029786;28;20127;-65
2022/06/30 02:04:48;;;;;;;5.53;3.35;;;;;;;20.49;57.54;100873.03;5026460;28;20099;-65
2022/06/30 02:07:14;;;;;;;5.72;3.70;;;;;;;20.57;56.91;100873.19;5021988;28;20533;-65
2022/06/30 02:09:41;;;;;;;6.53;3.70;;;;;;;20.52;57.78;100870.06;5028830;28;20118;-65
2022/06/30 02:14:55;;;;;;;6.22;3.38;;;;;;;20.53;57.61;100858.44;5017856;28;20103;-65
2022/06/30 02:17:21;;;;;;;4.07;3.22;;;;;;;20.29;58.01;100859.69;5025346;28;20049;-65
2022/06/30 02:19:47;;;;;;;6.55;3.50;;;;;;;20.47;57.73;100856.34;5021834;28;20119;-65
2022/06/30 02:22:14;;;;;;;5.18;3.08;;;;;;;20.46;57.43;100849.34;5025153;28;20046;-65
2022/06/30 02:24:40;;;;;;;5.65;3.13;;;;;;;20.63;56.96;100851.28;5024625;28;20694;-65
2022/06/30 02:27:07;;;;;;;4.55;3.25;;;;;;;20.74;56.79;100843.16;5021596;28;20046;-65
2022/06/30 02:29:33;;;;;;;6.20;3.35;;;;;;;20.76;56.70;100842.03;5023847;28;20096;-65
2022/06/30 02:32:01;;;;;;;4.93;3.10;;;;;;;20.82;56.40;100838.81;5028703;28;20055;-65
2022/06/30 02:34:28;;;;;;;5.65;3.20;;;;;;;20.84;56.32;100841.34;5022928;28;20073;-65
2022/06/30 02:36:55;;;;;;;7.80;4.88;;;;;;;20.76;56.75;100834.06;5024327;28;20501;-65
2022/06/30 02:39:21;;;;;;;4.55;3.17;;;;;;;20.88;56.24;100834.72;5023456;28;20041;-65
2022/06/30 02:41:48;;;;;;;5.07;3.25;;;;;;;20.94;55.81;100828.81;5022306;28;20524;-65
2022/06/30 02:44:14;;;;;;;7.38;3.63;;;;;;;20.85;56.69;100830.50;5024261;28;20456;-65
2022/06/30 02:46:40;;;;;;;7.05;3.13;;;;;;;20.66;57.21;100824.34;5026859;28;20166;-65
2022/06/30 02:49:08;;;;;;;4.18;3.10;;;;;;;20.75;56.67;100829.69;5020783;28;20042;-65
2022/06/30 02:51:35;;;;;;;6.55;3.20;;;;;;;20.76;56.70;100823.41;5039802;28;20045;-65
2022/06/30 02:54:01;;;;;;;4.50;3.22;;;;;;;20.75;56.90;100824.38;5030539;28;20049;-65
2022/06/30 02:56:27;;;;;;;6.82;3.10;;;;;;;20.86;56.51;100818.03;5022912;28;20560;-65
2022/06/30 02:58:54;;;;;;;4.90;3.30;;;;;;;20.88;56.50;100808.91;5025812;28;20134;-65
2022/06/30 03:01:20;;;;;;;4.10;2.92;;;;;;;20.96;56.26;100810.84;5030648;28;20099;-65
2022/06/30 03:03:46;;;;;;;5.90;3.72;;;;;;;21.00;56.15;100806.91;5023963;28;20077;-66
2022/06/30 03:06:14;;;;;;;6.55;3.38;;;;;;;21.12;55.68;100807.63;5024498;28;20111;-66
2022/06/30 03:08:40;;;;;;;6.60;2.97;;;;;;;21.08;56.70;100795.53;5025479;28;20061;-65
2022/06/30 03:11:06;;;;;;;3.40;3.08;;;;;;;21.12;56.13;100795.13;5026635;28;20050;-67
2022/06/30 03:13:33;;;;;;;4.38;3.05;;;;;;;21.17;56.05;100798.22;5026026;28;20100;-65
2022/06/30 03:16:01;;;;;;;4.18;2.85;;;;;;;21.19;56.12;100800.72;5026652;28;20058;-65
2022/06/30 03:18:28;;;;;;;9.95;3.92;;;;;;;21.27;55.98;100798.16;5025550;28;20444;-65
2022/06/30 03:20:56;;;;;;;4.60;3.38;;;;;;;21.32;56.25;100802.06;5027137;28;20045;-65
2022/06/30 03:23:25;;;;;;;3.92;3.25;;;;;;;21.39;55.89;100801.50;5024993;28;20045;-65
2022/06/30 03:25:51;;;;;;;4.55;3.40;;;;;;;21.39;56.21;100806.81;5017250;28;20050;-66
2022/06/30 03:28:17;;;;;;;6.03;3.20;;;;;;;21.33;56.51;100808.22;5027036;28;20498;-65
2022/06/30 03:30:45;;;;;;;3.85;3.10;;;;;;;21.31;56.46;100795.06;5028289;28;20686;-65
2022/06/30 03:33:11;;;;;;;6.90;2.97;;;;;;;21.40;55.95;100801.31;5040692;28;20056;-73
2022/06/30 03:35:38;;;;;;;5.28;3.15;;;;;;;21.25;56.74;100792.97;5028776;28;20057;-71
2022/06/30 03:38:04;;;;;;;6.25;3.30;;;;;;;21.41;55.65;100794.16;5026091;28;20414;-71
2022/06/30 03:40:32;;;;;;;6.00;3.20;;;;;;;21.29;56.28;100809.50;5025029;28;20124;-70
2022/06/30 03:42:59;;;;;;;4.95;3.08;;;;;;;21.34;56.37;100809.94;5027227;28;20531;-71
2022/06/30 03:45:25;;;;;;;4.70;3.00;;;;;;;21.54;55.20;100810.69;5025482;28;20046;-71
2022/06/30 03:47:52;;;;;;;5.80;2.95;;;;;;;21.62;55.37;100813.44;5025314;28;20048;-71
2022/06/30 03:50:18;;;;;;;8.60;3.00;;;;;;;21.69;55.43;100815.38;5026505;28;20053;-71
2022/06/30 03:52:44;;;;;;;3.88;2.88;;;;;;;21.53;56.03;100809.00;5025129;28;20050;-71
2022/06/30 03:55:11;;;;;;;4.07;2.70;;;;;;;21.53;55.05;100809.00;5024807;28;20067;-71
2022/06/30 03:57:38;;;;;;;4.35;2.83;;;;;;;21.63;54.44;100810.63;5027258;28;20053;-71
2022/06/30 04:00:06;;;;;;;6.20;2.97;;;;;;;21.79;54.35;100816.16;5025587;28;20563;-71
2022/06/30 04:02:33;;;;;;;5.13;3.42;;;;;;;21.98;53.66;100814.41;5023510;28;20417;-71
2022/06/30 04:04:59;;;;;;;4.15;2.97;;;;;;;22.11;53.37;100820.19;5027536;28;20045;-71
2022/06/30 04:07:26;;;;;;;6.40;2.95;;;;;;;22.00;53.51;100818.59;5027549;28;20045;-71
2022/06/30 04:09:52;;;;;;;4.25;2.97;;;;;;;22.05;53.56;100821.66;5023899;28;20049;-71
2022/06/30 04:12:18;;;;;;;4.40;2.75;;;;;;;22.28;53.30;100822.06;5025699;28;20453;-72
2022/06/30 04:14:46;;;;;;;7.65;3.03;;;;;;;22.39;52.68;100821.00;5025607;28;20049;-72
2022/06/30 04:17:12;;;;;;;4.30;3.00;;;;;;;22.67;52.28;100819.88;5023939;28;20046;-72
2022/06/30 04:19:39;;;;;;;8.45;2.83;;;;;;;22.47;53.18;100827.22;5026047;28;20107;-71
2022/06/30 04:22:06;;;;;;;7.95;3.22;;;;;;;22.26;53.36;100824.88;5025945;28;20041;-72
2022/06/30 04:24:32;;;;;;;5.28;2.80;;;;;;;22.26;52.63;100827.53;5024907;28;20698;-72
2022/06/30 04:26:59;;;;;;;5.82;3.10;;;;;;;22.53;52.48;100817.78;5025504;28;20118;-72
2022/06/30 04:29:25;;;;;;;5.15;2.85;;;;;;;22.67;52.59;100823.44;5023662;28;20041;-72
2022/06/30 04:34:37;;;;;;;5.90;3.20;;;;;;;22.68;52.38;100821.59;5025524;28;20068;-72
2022/06/30 04:37:03;;;;;;;5.20;2.90;;;;;;;22.91;51.21;100828.09;5025858;28;20702;-72
2022/06/30 04:39:30;;;;;;;10.73;3.22;;;;;;;23.03;51.37;100820.66;5024745;28;20049;-72
2022/06/30 04:41:55;;;;;;;7.57;2.75;;;;;;;23.04;51.34;100819.69;5024369;28;20502;-72
2022/06/30 04:44:21;;;;;;;6.47;3.05;;;;;;;22.97;51.75;100822.16;5026573;28;20095;-72
2022/06/30 04:46:48;;;;;;;6.60;3.00;;;;;;;23.10;51.04;100811.03;5017220;28;20095;-72
2022/06/30 04:49:15;;;;;;;5.53;2.90;;;;;;;23.07;50.71;100817.53;5025389;28;20045;-72
2022/06/30 04:51:42;;;;;;;7.70;3.55;;;;;;;23.00;51.39;100818.31;5026440;28;20114;-72
2022/06/30 04:54:08;;;;;;;10.10;3.13;;;;;;;23.17;51.12;100807.56;5029089;28;20045;-72
2022/06/30 04:56:35;;;;;;;5.07;3.08;;;;;;;23.25;51.74;100807.59;5044854;28;20040;-72
2022/06/30 04:59:01;;;;;;;6.60;3.30;;;;;;;23.45;51.25;100810.09;5024021;28;20494;-72
2022/06/30 05:01:27;;;;;;;6.32;3.40;;;;;;;23.55;50.19;100808.97;5025344;28;20041;-72
2022/06/30 05:03:53;;;;;;;6.45;3.20;;;;;;;23.41;50.91;100808.69;5024756;28;20049;-73
2022/06/30 05:06:21;;;;;;;6.30;3.40;;;;;;;23.67;50.27;100812.19;5026266;28;20095;-72
2022/06/30 05:08:48;;;;;;;4.72;3.38;;;;;;;23.80;50.43;100809.88;5037276;28;20052;-72
2022/06/30 05:11:15;;;;;;;6.97;3.25;;;;;;;24.07;49.34;100820.34;5029466;28;20051;-72
2022/06/30 05:13:41;;;;;;;6.95;3.20;;;;;;;24.28;48.83;100822.56;5024858;28;20106;-72
2022/06/30 05:16:07;;;;;;;9.18;3.17;;;;;;;24.20;49.42;100825.25;5024354;28;20045;-72
2022/06/30 05:18:34;;;;;;;5.97;3.50;;;;;;;23.69;50.02;100827.06;5025672;28;20049;-71
2022/06/30 05:21:00;;;;;;;5.32;3.10;;;;;;;23.70;50.16;100817.22;5024803;28;20107;-71
2022/06/30 05:23:28;;;;;;;7.47;3.40;;;;;;;24.03;50.80;100818.97;5021657;28;20081;-70
2022/06/30 05:28:38;;;;;;;3.72;3.08;;;;;;;24.27;49.00;100817.41;5023238;28;20580;-70
2022/06/30 05:31:04;;;;;;;4.63;3.08;;;;;;;24.80;48.14;100812.34;5024625;28;20073;-71
2022/06/30 05:33:30;;;;;;;5.15;3.10;;;;;;;24.84;47.87;100808.38;5023696;28;20095;-71
2022/06/30 05:35:58;;;;;;;5.32;3.30;;;;;;;24.27;49.35;100804.00;5023478;28;20046;-71
2022/06/30 05:38:25;;;;;;;7.75;3.40;;;;;;;23.66;50.80;100813.19;5024251;28;20103;-71
2022/06/30 05:40:52;;;;;;;4.65;3.35;;;;;;;23.72;49.85;100809.88;5024152;28;20482;-71
2022/06/30 05:43:19;;;;;;;7.68;3.00;;;;;;;23.34;52.28;100810.34;5023604;28;20041;-72
2022/06/30 05:45:46;;;;;;;7.05;3.35;;;;;;;23.45;51.90;100812.75;5024418;28;20497;-71
2022/06/30 05:48:13;;;;;;;6.28;3.35;;;;;;;23.85;51.71;100809.38;5024205;28;20045;-71
2022/06/30 05:50:39;;;;;;;4.63;3.22;;;;;;;24.60;48.80;100817.25;5021771;28;20045;-71
2022/06/30 05:53:05;;;;;;;5.13;3.13;;;;;;;25.07;47.21;100809.34;5025045;28;20127;-71
2022/06/30 05:55:32;;;;;;;8.65;3.08;;;;;;;25.54;45.91;100801.34;5024337;28;20046;-71
2022/06/30 05:58:03;;;;;;;7.18;3.33;;;;;;;25.77;46.03;100796.03;5025321;28;20050;-71
2022/06/30 06:00:32;;;;;;;7.57;3.15;;;;;;;26.13;44.66;100810.59;5024455;28;20109;-71
2022/06/30 06:02:59;;;;;;;7.22;3.60;;;;;;;26.32;45.52;100803.94;5024290;28;20049;-71
2022/06/30 06:05:26;;;;;;;6.10;3.30;;;;;;;26.90;43.45;100808.66;5021818;28;20091;-71
2022/06/30 06:07:53;;;;;;;3.88;2.90;;;;;;;27.25;42.72;100806.28;5024473;28;20046;-72
2022/06/30 06:10:19;;;;;;;4.90;3.08;;;;;;;26.75;42.07;100806.94;5021083;28;20046;-72
2022/06/30 06:12:45;;;;;;;9.75;3.13;;;;;;;26.93;43.67;100810.16;5023886;28;20097;-71
2022/06/30 06:15:14;;;;;;;5.65;3.17;;;;;;;26.79;42.79;100805.56;5024003;28;20061;-71
2022/06/30 06:17:43;;;;;;;5.05;3.13;;;;;;;27.08;41.60;100809.19;5024710;28;20073;-71
2022/06/30 06:20:11;;;;;;;5.30;3.40;;;;;;;26.44;42.54;100810.56;5025437;28;20045;-71
2022/06/30 06:22:37;;;;;;;8.93;3.80;;;;;;;26.53;43.52;100814.03;5023381;28;20045;-71
2022/06/30 06:25:05;;;;;;;7.63;3.05;;;;;;;26.47;43.75;100812.06;5022468;28;20057;-71
2022/06/30 06:27:31;;;;;;;3.53;3.15;;;;;;;26.28;42.87;100809.84;5035193;28;20049;-70
2022/06/30 06:29:57;;;;;;;5.18;2.85;;;;;;;26.31;42.96;100804.13;5037952;28;20119;-70
2022/06/30 06:32:25;;;;;;;5.10;3.03;;;;;;;26.36;42.81;100810.63;5023595;28;20050;-70
2022/06/30 06:34:51;;;;;;;5.10;2.97;;;;;;;25.95;43.37;100804.66;5026301;28;20460;-70
2022/06/30 06:37:18;;;;;;;5.60;3.08;;;;;;;25.55;45.12;100807.53;5024434;28;20049;-70
2022/06/30 06:39:44;;;;;;;5.47;3.33;;;;;;;25.83;44.77;100807.94;5022773;28;20100;-70
2022/06/30 06:42:10;;;;;;;11.10;3.92;;;;;;;25.74;45.43;100801.75;5026385;28;20049;-70
2022/06/30 06:44:37;;;;;;;9.88;3.63;;;;;;;26.38;44.65;100800.53;5039714;28;20053;-70
2022/06/30 06:47:03;;;;;;;6.88;3.53;;;;;;;26.74;44.99;100789.97;5029752;28;20049;-69
2022/06/30 06:49:31;;;;;;;5.38;3.50;;;;;;;27.06;43.86;100788.84;5034443;28;20069;-69
2022/06/30 06:51:57;;;;;;;4.85;2.92;;;;;;;27.46;44.31;100791.09;5028507;28;20045;-69
2022/06/30 06:54:24;;;;;;;3.70;2.72;;;;;;;27.58;42.41;100794.13;5027802;28;20073;-69
2022/06/30 06:56:50;;;;;;;5.55;3.15;;;;;;;27.89;41.69;100797.44;5032517;28;20103;-69
2022/06/30 06:59:17;;;;;;;14.52;3.10;;;;;;;28.61;40.71;100786.53;5028379;28;20049;-69
2022/06/30 07:01:43;;;;;;;4.20;3.03;;;;;;;28.77;38.23;100791.69;5038287;28;20450;-69
2022/06/30 07:04:10;;;;;;;7.20;3.20;;;;;;;29.07;38.66;100788.78;5026736;28;20076;-69
2022/06/30 07:06:38;;;;;;;4.65;2.90;;;;;;;29.56;38.94;100785.97;5028081;28;20067;-69
2022/06/30 07:09:04;;;;;;;7.05;3.53;;;;;;;29.30;38.90;100782.09;5024890;28;20045;-69
2022/06/30 07:11:30;;;;;;;8.07;3.50;;;;;;;29.72;38.89;100782.88;5031100;28;20041;-69
2022/06/30 07:13:57;;;;;;;10.75;3.15;;;;;;;30.51;36.75;100785.81;5028256;28;20096;-69
2022/06/30 07:16:23;;;;;;;3.95;3.25;;;;;;;30.72;35.09;100783.72;5026761;28;20073;-69
2022/06/30 07:18:49;;;;;;;6.68;2.95;;;;;;;30.23;37.16;100788.69;5030600;28;20049;-69
2022/06/30 07:21:16;;;;;;;5.15;2.90;;;;;;;29.58;39.01;100792.00;5027019;28;20053;-70
2022/06/30 07:23:43;;;;;;;3.60;2.95;;;;;;;29.95;38.29;100786.13;5027264;28;20050;-70
2022/06/30 07:26:11;;;;;;;6.10;3.10;;;;;;;28.74;39.25;100796.66;5027145;28;20046;-70
2022/06/30 07:28:37;;;;;;;6.97;3.35;;;;;;;28.38;41.20;100794.84;5041598;28;20486;-70
2022/06/30 07:31:04;;;;;;;6.13;3.22;;;;;;;29.44;39.04;100783.00;5019707;28;20665;-68
2022/06/30 07:33:30;;;;;;;6.03;3.30;;;;;;;29.85;39.50;100783.81;5028492;28;20041;-67
2022/06/30 07:35:58;;;;;;;6.70;3.53;;;;;;;29.96;37.70;100782.41;5041120;28;20053;-67
2022/06/30 07:38:25;;;;;;;7.85;3.53;;;;;;;30.30;38.20;100789.53;5027180;28;20512;-70
2022/06/30 07:40:52;;;;;;;5.03;3.47;;;;;;;31.02;36.01;100784.16;5029450;28;20040;-70
2022/06/30 07:43:19;;;;;;;4.60;3.30;;;;;;;29.92;37.81;100787.38;5038915;28;20095;-70
2022/06/30 07:45:45;;;;;;;4.55;3.92;;;;;;;29.86;38.96;100774.66;5029970;28;20081;-70
2022/06/30 07:48:11;;;;;;;8.55;3.90;;;;;;;30.35;37.71;100781.63;5026823;28;20490;-70
2022/06/30 07:50:38;;;;;;;7.25;4.35;;;;;;;29.92;39.18;100789.25;5033370;28;20049;-70
2022/06/30 07:53:04;;;;;;;10.55;3.58;;;;;;;30.10;39.75;100789.50;5026981;28;20103;-70
2022/06/30 07:55:30;;;;;;;7.78;3.88;;;;;;;30.86;38.13;100779.13;5039108;28;20042;-70
2022/06/30 07:57:58;;;;;;;6.13;3.88;;;;;;;31.50;36.45;100778.38;5027344;28;20417;-70
2022/06/30 08:00:25;;;;;;;7.03;4.05;;;;;;;31.73;36.66;100771.44;5031831;28;20455;-70
2022/06/30 08:02:52;;;;;;;6.90;4.25;;;;;;;31.89;34.94;100774.69;5028483;28;20049;-70
2022/06/30 08:05:19;;;;;;;7.05;3.95;;;;;;;32.14;34.79;100771.00;5025730;28;20041;-70
2022/06/30 08:07:45;;;;;;;6.88;4.13;;;;;;;32.46;35.58;100766.38;5031527;28;20651;-70
2022/06/30 08:10:12;;;;;;;10.88;4.25;;;;;;;32.70;35.02;100759.31;5032534;28;20041;-70
2022/06/30 08:12:38;;;;;;;8.98;4.90;;;;;;;32.47;33.72;100765.34;5025056;28;20050;-70
2022/06/30 08:15:07;;;;;;;9.55;6.00;;;;;;;30.87;36.00;100768.09;5030917;28;20045;-70
2022/06/30 08:17:33;;;;;;;8.40;5.03;;;;;;;30.19;38.03;100771.22;5031456;28;20053;-69
2022/06/30 08:20:00;;;;;;;8.55;4.93;;;;;;;31.00;39.80;100769.16;5023674;28;20049;-69
2022/06/30 08:22:27;;;;;;;6.95;5.30;;;;;;;32.26;34.44;100763.00;5028847;28;20421;-69
2022/06/30 08:24:55;;;;;;;8.00;4.72;;;;;;;32.09;35.02;100765.41;5044479;28;20418;-69
2022/06/30 08:27:21;;;;;;;10.32;5.50;;;;;;;32.29;34.25;100759.84;5034860;28;20049;-71
2022/06/30 08:29:48;;;;;;;6.15;4.85;;;;;;;31.86;35.51;100767.81;5024758;28;20147;-71
2022/06/30 08:32:15;;;;;;;7.88;5.22;;;;;;;32.25;34.92;100764.06;5025765;28;20046;-71
2022/06/30 08:34:42;;;;;;;8.90;5.60;;;;;;;32.92;34.23;100759.72;5025577;28;20063;-71
2022/06/30 08:37:09;;;;;;;6.85;5.50;;;;;;;32.70;34.86;100768.31;5029422;28;20125;-71
2022/06/30 08:42:21;;;;;;;8.55;5.68;;;;;;;33.82;33.20;100760.78;5032808;28;20141;-71
2022/06/30 08:45:13;;;;;;;8.38;5.47;;;;;;;34.03;32.02;100757.56;5024908;28;20103;-71
2022/06/30 08:47:37;;;;;;;7.80;5.70;;;;;;;34.56;33.07;100760.28;5025737;28;20147;-71
2022/06/30 08:50:04;;;;;;;8.95;6.03;;;;;;;34.80;33.53;100761.16;5024803;28;20125;-71
2022/06/30 08:52:30;;;;;;;10.15;5.75;;;;;;;34.97;30.46;100743.84;5024789;28;20096;-71
2022/06/30 08:54:59;;;;;;;9.43;5.78;;;;;;;35.06;29.82;100752.47;5025141;28;20115;-71
2022/06/30 08:57:26;;;;;;;7.88;5.30;;;;;;;34.09;31.76;100746.56;5025001;28;20049;-71
2022/06/30 08:59:53;;;;;;;8.50;5.63;;;;;;;34.15;31.76;100744.81;5024131;28;20054;-71
2022/06/30 09:02:19;;;;;;;8.38;5.25;;;;;;;33.16;33.61;100745.28;5024653;28;20045;-71
2022/06/30 09:04:47;;;;;;;10.27;5.13;;;;;;;34.10;33.43;100744.69;5024786;28;20493;-71
2022/06/30 09:07:13;;;;;;;8.88;5.25;;;;;;;33.93;31.85;100736.34;5024096;28;20046;-71
2022/06/30 09:09:39;;;;;;;6.47;5.28;;;;;;;33.32;32.28;100732.97;5024479;28;20095;-71
2022/06/30 09:12:14;;;;;;;7.78;5.35;;;;;;;33.85;32.13;100728.50;5026290;28;20054;-70
2022/06/30 09:14:42;;;;;;;8.40;4.95;;;;;;;34.25;31.52;100736.09;5023948;28;20121;-71
2022/06/30 09:17:10;;;;;;;13.77;5.82;;;;;;;33.42;32.54;100733.25;5025233;28;20095;-71
2022/06/30 09:19:40;;;;;;;7.47;4.90;;;;;;;33.82;33.18;100723.53;5024534;28;20099;-71
2022/06/30 09:22:10;;;;;;;5.95;4.80;;;;;;;34.25;32.93;100725.22;5025483;28;20045;-71
2022/06/30 09:24:37;;;;;;;6.82;4.78;;;;;;;34.10;32.11;100721.03;5024218;28;20045;-71
2022/06/30 09:27:19;;;;;;;7.50;4.85;;;;;;;34.17;32.23;100718.22;5023530;28;20472;-70
2022/06/30 09:29:47;;;;;;;9.90;5.07;;;;;;;33.60;31.93;100719.63;5025347;28;20132;-70
2022/06/30 09:32:13;;;;;;;7.40;5.45;;;;;;;32.50;34.71;100718.75;5024149;28;20146;-70
2022/06/30 09:34:40;;;;;;;7.68;5.13;;;;;;;32.06;35.18;100718.88;5029017;28;20628;-70
2022/06/30 09:37:16;;;;;;;7.78;4.82;;;;;;;32.84;36.50;100720.13;5029239;28;20054;-70
2022/06/30 09:39:44;;;;;;;9.82;4.88;;;;;;;32.19;36.47;100724.22;5022759;28;20052;-70
2022/06/30 09:42:10;;;;;;;6.80;4.70;;;;;;;32.54;34.86;100722.69;5023993;28;20534;-70
2022/06/30 09:44:37;;;;;;;7.53;4.80;;;;;;;32.89;34.54;100722.97;5022615;28;20549;-71
2022/06/30 09:47:06;;;;;;;7.88;5.10;;;;;;;32.82;33.19;100724.91;5023633;28;20064;-70
2022/06/30 09:49:34;;;;;;;6.82;4.88;;;;;;;33.22;33.27;100717.22;5029785;28;20049;-70
2022/06/30 09:52:03;;;;;;;11.38;4.93;;;;;;;32.79;32.95;100717.22;5027303;28;20099;-70
2022/06/30 09:54:34;;;;;;;10.27;4.82;;;;;;;32.55;34.41;100716.19;5023469;28;20123;-70
2022/06/30 09:57:02;;;;;;;11.20;5.20;;;;;;;33.83;34.15;100717.03;5023542;28;20547;-70
2022/06/30 09:59:28;;;;;;;7.95;4.90;;;;;;;34.17;32.00;100715.50;5023196;28;20041;-71
2022/06/30 10:01:55;;;;;;;8.00;4.95;;;;;;;33.12;33.78;100708.75;5031554;28;20310;-71
2022/06/30 10:04:22;;;;;;;8.07;4.75;;;;;;;33.43;34.69;100708.56;5035485;28;20103;-71
2022/06/30 10:06:48;;;;;;;7.95;4.57;;;;;;;34.65;33.06;100713.44;5024801;28;20074;-71
2022/06/30 10:09:17;;;;;;;8.27;4.75;;;;;;;35.34;31.36;100705.38;5027045;28;20494;-71
2022/06/30 10:11:46;;;;;;;9.48;4.80;;;;;;;34.98;31.05;100696.44;5022908;28;20514;-71
2022/06/30 10:14:14;;;;;;;6.05;5.18;;;;;;;35.00;31.62;100699.75;5022803;28;20053;-71
2022/06/30 10:16:42;;;;;;;7.07;4.55;;;;;;;35.07;32.05;100697.72;5027975;28;20073;-71
2022/06/30 10:19:10;;;;;;;8.30;4.88;;;;;;;35.36;30.04;100693.19;5028462;28;20053;-70
2022/06/30 10:21:37;;;;;;;8.15;4.43;;;;;;;34.77;30.91;100702.53;5027392;28;20049;-71
2022/06/30 10:24:04;;;;;;;10.45;4.97;;;;;;;35.24;31.96;100688.81;5030138;28;20056;-70
2022/06/30 10:29:17;;;;;;;10.00;4.47;;;;;;;34.64;30.78;100703.59;5027391;28;20061;-70
2022/06/30 10:31:49;;;;;;;7.35;4.55;;;;;;;34.12;30.94;100707.16;5027425;28;20099;-70
2022/06/30 10:34:20;;;;;;;10.40;4.43;;;;;;;33.56;32.63;100700.22;5027050;28;20047;-70
2022/06/30 10:36:53;;;;;;;7.40;4.30;;;;;;;33.87;34.32;100692.91;5028824;28;20045;-70
2022/06/30 10:39:25;;;;;;;7.65;4.40;;;;;;;34.59;31.50;100684.38;5027740;28;20053;-70
2022/06/30 10:41:52;;;;;;;10.07;4.40;;;;;;;35.67;30.60;100682.88;5029527;28;20053;-70
2022/06/30 10:44:24;;;;;;;6.05;4.28;;;;;;;35.56;32.06;100682.66;5032130;28;20037;-70
2022/06/30 10:47:11;;;;;;;8.15;4.93;;;;;;;35.39;30.10;100678.22;5027513;28;20077;-70
2022/06/30 10:49:58;;;;;;;8.00;4.80;;;;;;;35.73;29.77;100671.00;5025935;28;20041;-70
2022/06/30 10:52:27;;;;;;;6.35;4.25;;;;;;;35.25;30.17;100674.97;5019719;28;20041;-70
2022/06/30 10:55:06;;;;;;;8.10;4.50;;;;;;;34.84;30.53;100676.00;5026992;28;20049;-70
2022/06/30 10:58:06;;;;;;;7.88;4.18;;;;;;;35.04;30.71;100667.41;5036216;28;20045;-70
2022/06/30 11:01:04;;;;;;;5.45;4.20;;;;;;;33.96;31.68;100676.00;5029920;28;20559;-70
2022/06/30 11:03:58;;;;;;;6.70;4.45;;;;;;;34.43;33.51;100660.59;5024303;28;20041;-70
2022/06/30 11:06:50;;;;;;;6.90;4.18;;;;;;;35.23;30.74;100657.19;5012939;28;20042;-71
2022/06/30 11:09:17;;;;;;;8.25;4.85;;;;;;;35.82;28.57;100670.31;5026955;28;20073;-70
2022/06/30 11:11:44;;;;;;;9.48;4.28;;;;;;;35.68;31.23;100657.25;5026620;28;20061;-71
2022/06/30 11:14:26;;;;;;;7.60;4.53;;;;;;;34.96;30.97;100651.44;5025627;28;20429;-70
2022/06/30 11:16:54;;;;;;;6.07;4.22;;;;;;;36.07;32.14;100661.72;5027931;28;20051;-70
2022/06/30 11:19:24;;;;;;;6.65;4.00;;;;;;;36.71;30.25;100643.09;5025675;28;20132;-70
2022/06/30 11:21:51;;;;;;;8.77;4.38;;;;;;;37.26;30.73;100642.97;5027413;28;20041;-70
2022/06/30 11:24:22;;;;;;;9.38;4.13;;;;;;;37.87;29.22;100656.19;5027638;28;20519;-70
2022/06/30 11:29:34;;;;;;;6.95;3.88;;;;;;;36.83;27.98;100630.13;5027242;28;20047;-70
2022/06/30 11:32:03;;;;;;;7.45;3.90;;;;;;;36.58;28.13;100636.94;5025170;28;20071;-70
2022/06/30 11:34:31;;;;;;;9.30;4.70;;;;;;;35.83;29.29;100632.97;5027499;28;20057;-70
2022/06/30 11:36:57;;;;;;;5.65;4.28;;;;;;;35.32;30.23;100636.66;5026877;28;20049;-70
2022/06/30 11:39:25;;;;;;;6.28;4.68;;;;;;;35.62;30.58;100640.78;5026446;28;20095;-70
2022/06/30 11:41:59;;;;;;;8.50;4.32;;;;;;;35.98;30.96;100638.66;5027093;28;20045;-70
2022/06/30 11:44:27;;;;;;;7.82;3.85;;;;;;;36.55;28.99;100626.44;5027084;28;20075;-70
2022/06/30 11:46:56;;;;;;;8.30;4.38;;;;;;;37.06;28.56;100618.97;5024151;28;20049;-70